createdAt,value
2022-09-18T00:01:12.387Z,99551.75
2022-09-18T00:03:41.966Z,99552.16
2022-09-18T00:06:12.482Z,99553.91
2022-09-18T00:08:40.379Z,99558.81
2022-09-18T00:11:10.085Z,99560.25
2022-09-18T00:13:39.026Z,99561.03
2022-09-18T00:16:09.394Z,99552.84
2022-09-18T00:18:36.879Z,99561.03
2022-09-18T00:21:08.062Z,99561.88
2022-09-18T00:23:36.176Z,99565.91
2022-09-18T00:26:03.950Z,99556.22
2022-09-18T00:28:31.662Z,99561.91
2022-09-18T00:31:04.573Z,99555.25
2022-09-18T00:33:32.481Z,99564.28
2022-09-18T00:36:01.721Z,99562.03
2022-09-18T00:38:31.828Z,99558.56
2022-09-18T00:40:59.677Z,99558.56
2022-09-18T00:43:30.184Z,99563.66
2022-09-18T00:46:01.517Z,99564.13
2022-09-18T00:48:39.938Z,99562.00
2022-09-18T00:51:06.935Z,99563.06
2022-09-18T00:53:41.820Z,99566.75
2022-09-18T00:56:14.656Z,99568.78
2022-09-18T00:58:42.781Z,99564.41
2022-09-18T01:01:09.981Z,99566.16
2022-09-18T01:03:36.869Z,99564.25
2022-09-18T01:06:14.769Z,99562.38
2022-09-18T01:09:07.571Z,99562.13
2022-09-18T01:11:48.126Z,99561.19
2022-09-18T01:14:30.518Z,99553.34
2022-09-18T01:17:09.834Z,99558.81
2022-09-18T01:20:01.975Z,99560.25
2022-09-18T01:22:54.106Z,99566.03
2022-09-18T01:25:38.460Z,99568.16
2022-09-18T01:28:20.752Z,99553.56
2022-09-18T01:30:52.401Z,99561.41
2022-09-18T01:33:30.828Z,99567.81
2022-09-18T01:36:06.437Z,99565.09
2022-09-18T01:38:40.301Z,99568.78
2022-09-18T01:41:14.404Z,99567.59
2022-09-18T01:43:47.095Z,99576.13
2022-09-18T01:46:19.020Z,99577.66
2022-09-18T01:48:55.453Z,99564.25
2022-09-18T01:51:30.834Z,99565.00
2022-09-18T01:54:06.694Z,99566.16
2022-09-18T01:56:42.049Z,99568.56
2022-09-18T01:59:18.805Z,99570.44
2022-09-18T02:01:57.452Z,99559.06
2022-09-18T02:04:30.393Z,99556.19
2022-09-18T02:07:07.466Z,99550.97
2022-09-18T02:09:35.421Z,99551.00
2022-09-18T02:12:07.560Z,99551.34
2022-09-18T02:14:42.557Z,99549.34
2022-09-18T02:17:34.875Z,99555.84
2022-09-18T02:20:11.530Z,99538.88
2022-09-18T02:22:44.431Z,99540.06
2022-09-18T02:25:18.506Z,99552.41
2022-09-18T02:27:49.123Z,99544.81
2022-09-18T02:30:18.024Z,99543.38
2022-09-18T02:32:44.841Z,99555.97
2022-09-18T02:35:13.490Z,99546.63
2022-09-18T02:37:56.680Z,99554.91
2022-09-18T02:40:42.486Z,99555.63
2022-09-18T02:43:31.026Z,99561.41
2022-09-18T02:46:12.932Z,99557.16
2022-09-18T02:48:56.511Z,99553.84
2022-09-18T02:51:34.716Z,99546.72
2022-09-18T02:54:08.259Z,99542.94
2022-09-18T02:56:42.469Z,99536.41
2022-09-18T02:59:17.747Z,99535.34
2022-09-18T03:01:55.156Z,99537.72
2022-09-18T03:04:25.607Z,99527.28
2022-09-18T03:07:17.871Z,99536.19
2022-09-18T03:09:50.990Z,99533.22
2022-09-18T03:12:18.040Z,99534.16
2022-09-18T03:14:47.943Z,99532.13
2022-09-18T03:17:16.191Z,99532.63
2022-09-18T03:19:44.878Z,99523.25
2022-09-18T03:22:13.533Z,99530.13
2022-09-18T03:24:41.804Z,99517.34
2022-09-18T03:27:08.556Z,99530.22
2022-09-18T03:29:36.070Z,99530.59
2022-09-18T03:32:03.794Z,99529.63
2022-09-18T03:34:40.009Z,99528.69
2022-09-18T03:37:07.237Z,99542.22
2022-09-18T03:39:34.572Z,99540.06
2022-09-18T03:42:02.663Z,99545.06
2022-09-18T03:44:31.739Z,99542.69
2022-09-18T03:47:03.463Z,99538.78
2022-09-18T03:49:30.955Z,99548.25
2022-09-18T03:51:58.990Z,99548.00
2022-09-18T03:54:30.477Z,99546.25
2022-09-18T03:57:13.214Z,99544.34
2022-09-18T03:59:53.411Z,99551.47
2022-09-18T04:02:38.884Z,99545.66
2022-09-18T04:05:24.934Z,99538.31
2022-09-18T04:08:15.920Z,99537.25
2022-09-18T04:11:01.237Z,99543.63
2022-09-18T04:13:27.993Z,99550.50
2022-09-18T04:16:01.897Z,99556.19
2022-09-18T04:18:29.381Z,99544.59
2022-09-18T04:20:57.435Z,99542.94
2022-09-18T04:23:25.643Z,99539.84
2022-09-18T04:25:52.741Z,99539.84
2022-09-18T04:28:19.696Z,99546.59
2022-09-18T04:30:48.381Z,99544.59
2022-09-18T04:33:16.227Z,99539.97
2022-09-18T04:35:43.503Z,99533.19
2022-09-18T04:38:10.865Z,99533.22
2022-09-18T04:40:39.212Z,99541.50
2022-09-18T04:43:05.977Z,99539.97
2022-09-18T04:45:32.763Z,99533.69
2022-09-18T04:47:59.722Z,99541.75
2022-09-18T04:50:28.113Z,99545.19
2022-09-18T04:53:11.634Z,99548.84
2022-09-18T04:55:42.881Z,99549.56
2022-09-18T04:58:10.299Z,99550.97
2022-09-18T05:00:37.541Z,99547.69
2022-09-18T05:03:05.006Z,99549.06
2022-09-18T05:05:34.663Z,99550.63
2022-09-18T05:08:02.821Z,99556.44
2022-09-18T05:10:30.547Z,99559.03
2022-09-18T05:12:58.806Z,99559.38
2022-09-18T05:15:27.509Z,99556.44
2022-09-18T05:18:07.730Z,99561.91
2022-09-18T05:20:37.662Z,99557.75
2022-09-18T05:23:06.977Z,99561.63
2022-09-18T05:25:35.853Z,99559.50
2022-09-18T05:28:04.787Z,99568.56
2022-09-18T05:30:37.908Z,99573.16
2022-09-18T05:33:07.665Z,99570.91
2022-09-18T05:35:39.138Z,99563.78
2022-09-18T05:38:06.513Z,99565.22
2022-09-18T05:40:37.521Z,99560.13
2022-09-18T05:43:06.389Z,99561.91
2022-09-18T05:45:34.976Z,99560.47
2022-09-18T05:48:07.453Z,99563.78
2022-09-18T05:50:35.710Z,99564.75
2022-09-18T05:53:05.422Z,99576.63
2022-09-18T05:55:43.714Z,99571.19
2022-09-18T05:58:14.575Z,99574.59
2022-09-18T06:00:42.356Z,99584.22
2022-09-18T06:03:16.110Z,99576.13
2022-09-18T06:05:51.650Z,99577.56
2022-09-18T06:08:18.898Z,99590.84
2022-09-18T06:10:45.655Z,99595.09
2022-09-18T06:13:16.381Z,99586.78
2022-09-18T06:15:48.878Z,99582.50
2022-09-18T06:18:20.773Z,99582.63
2022-09-18T06:20:54.147Z,99581.13
2022-09-18T06:23:26.826Z,99574.47
2022-09-18T06:26:02.115Z,99569.34
2022-09-18T06:28:33.130Z,99566.38
2022-09-18T06:31:04.437Z,99572.19
2022-09-18T06:33:43.839Z,99576.59
2022-09-18T06:36:11.360Z,99571.84
2022-09-18T06:38:44.935Z,99581.03
2022-09-18T06:41:11.851Z,99597.09
2022-09-18T06:43:52.276Z,99593.53
2022-09-18T06:46:33.688Z,99586.28
2022-09-18T06:49:13.589Z,99592.25
2022-09-18T06:51:44.107Z,99590.59
2022-09-18T06:54:12.284Z,99595.44
2022-09-18T06:56:40.789Z,99598.63
2022-09-18T06:59:11.350Z,99598.41
2022-09-18T07:01:39.087Z,99589.72
2022-09-18T07:04:15.672Z,99597.66
2022-09-18T07:06:45.756Z,99588.41
2022-09-18T07:09:14.026Z,99579.41
2022-09-18T07:11:52.751Z,99586.16
2022-09-18T07:14:26.126Z,99586.53
2022-09-18T07:16:57.022Z,99587.97
2022-09-18T07:19:23.855Z,99584.38
2022-09-18T07:21:51.838Z,99597.56
2022-09-18T07:24:19.190Z,99593.44
2022-09-18T07:26:46.094Z,99592.81
2022-09-18T07:29:12.978Z,99602.09
2022-09-18T07:31:41.659Z,99600.53
2022-09-18T07:34:11.804Z,99605.94
2022-09-18T07:36:38.723Z,99605.00
2022-09-18T07:39:05.551Z,99604.03
2022-09-18T07:41:44.767Z,99611.75
2022-09-18T07:44:11.987Z,99605.47
2022-09-18T07:46:38.855Z,99609.59
2022-09-18T07:49:09.381Z,99609.00
2022-09-18T07:51:36.547Z,99615.25
2022-09-18T07:54:04.725Z,99604.53
2022-09-18T07:56:50.722Z,99617.94
2022-09-18T07:59:21.057Z,99617.94
2022-09-18T08:01:54.288Z,99615.53
2022-09-18T08:04:24.888Z,99623.38
2022-09-18T08:07:06.213Z,99626.25
2022-09-18T08:09:51.120Z,99631.03
2022-09-18T08:12:43.886Z,99624.84
2022-09-18T08:15:27.486Z,99626.00
2022-09-18T08:18:21.436Z,99624.94
2022-09-18T08:20:58.648Z,99633.19
2022-09-18T08:23:47.098Z,99625.69
2022-09-18T08:26:17.672Z,99630.72
2022-09-18T08:28:48.641Z,99632.38
2022-09-18T08:31:16.198Z,99634.59
2022-09-18T08:33:43.680Z,99635.06
2022-09-18T08:36:12.418Z,99629.44
2022-09-18T08:38:47.323Z,99631.03
2022-09-18T08:42:11.857Z,99629.00
2022-09-18T08:44:50.635Z,99630.22
2022-09-18T08:47:25.262Z,99625.88
2022-09-18T08:50:00.816Z,99622.56
2022-09-18T08:52:37.368Z,99623.50
2022-09-18T08:55:24.257Z,99630.91
2022-09-18T08:58:16.927Z,99639.13
2022-09-18T09:00:51.053Z,99625.03
2022-09-18T09:03:45.935Z,99625.59
2022-09-18T09:06:33.863Z,99623.22
2022-09-18T09:09:25.891Z,99624.09
2022-09-18T09:12:03.291Z,99627.47
2022-09-18T09:15:21.549Z,99623.31
2022-09-18T09:22:04.718Z,99613.06
2022-09-18T09:24:41.560Z,99639.25
2022-09-18T09:27:47.890Z,99622.31
2022-09-18T09:30:35.420Z,99607.25
2022-09-18T09:33:16.433Z,99636.50
2022-09-18T09:36:07.966Z,99630.50
2022-09-18T09:38:57.388Z,99634.94
2022-09-18T09:41:36.829Z,99632.06
2022-09-18T09:44:25.364Z,99625.88
2022-09-18T09:47:25.224Z,99619.31
2022-09-18T09:50:12.947Z,99617.13
2022-09-18T09:52:44.855Z,99598.06
2022-09-18T09:55:25.216Z,99618.47
2022-09-18T09:58:15.388Z,99621.75
2022-09-18T10:00:56.760Z,99619.25
2022-09-18T10:03:36.527Z,99620.91
2022-09-18T10:06:28.938Z,99615.34
2022-09-18T10:12:21.200Z,99617.88
2022-09-18T10:15:02.929Z,99604.47
2022-09-18T10:17:38.505Z,99611.09
2022-09-18T10:20:14.047Z,99613.88
2022-09-18T10:22:41.389Z,99606.38
2022-09-18T10:25:25.497Z,99612.69
2022-09-18T10:27:53.080Z,99616.25
2022-09-18T10:30:21.618Z,99609.63
2022-09-18T10:32:52.747Z,99613.47
2022-09-18T10:35:44.886Z,99602.09
2022-09-18T10:38:33.704Z,99609.38
2022-09-18T10:41:37.064Z,99593.28
2022-09-18T10:44:27.538Z,99591.50
2022-09-18T10:47:08.272Z,99597.69
2022-09-18T10:49:49.330Z,99591.69
2022-09-18T10:52:34.064Z,99591.94
2022-09-18T10:55:15.920Z,99591.38
2022-09-18T10:58:12.374Z,99589.97
2022-09-18T11:00:51.974Z,99584.06
2022-09-18T11:03:39.435Z,99600.66
2022-09-18T11:06:16.151Z,99591.28
2022-09-18T11:08:49.364Z,99586.97
2022-09-18T11:11:27.639Z,99587.75
2022-09-18T11:14:00.875Z,99586.47
2022-09-18T11:16:43.764Z,99574.28
2022-09-18T11:19:26.382Z,99567.03
2022-09-18T11:21:57.859Z,99551.19
2022-09-18T11:24:29.195Z,99569.25
2022-09-18T11:27:20.842Z,99551.66
2022-09-18T11:29:54.944Z,99536.16
2022-09-18T11:32:29.364Z,99545.19
2022-09-18T11:35:14.240Z,99545.34
2022-09-18T11:37:48.725Z,99550.41
2022-09-18T11:40:27.611Z,99540.22
2022-09-18T11:42:57.084Z,99542.38
2022-09-18T11:45:56.770Z,99531.91
2022-09-18T11:48:34.291Z,99536.66
2022-09-18T11:51:13.528Z,99521.47
2022-09-18T11:53:45.872Z,99529.81
2022-09-18T11:56:27.515Z,99531.47
2022-09-18T11:59:09.509Z,99516.13
2022-09-18T12:01:42.823Z,99521.28
2022-09-18T12:04:19.118Z,99522.06
2022-09-18T12:06:59.046Z,99517.03
2022-09-18T12:09:38.823Z,99514.94
2022-09-18T12:12:18.635Z,99521.38
2022-09-18T12:14:56.831Z,99512.06
2022-09-18T12:17:34.556Z,99502.28
2022-09-18T12:20:11.663Z,99497.03
2022-09-18T12:22:49.828Z,99480.00
2022-09-18T12:25:24.422Z,99478.25
2022-09-18T12:28:29.846Z,99469.06
2022-09-18T12:31:43.150Z,99475.09
2022-09-18T12:35:04.094Z,99464.97
2022-09-18T12:38:19.911Z,99490.75
2022-09-18T12:41:17.849Z,99481.56
2022-09-18T12:44:52.714Z,99476.09
2022-09-18T12:47:50.230Z,99490.69
2022-09-18T12:54:17.025Z,99484.66
2022-09-18T12:57:08.447Z,99483.06
2022-09-18T12:59:57.887Z,99491.41
2022-09-18T13:02:49.171Z,99480.31
2022-09-18T13:05:27.224Z,99476.03
2022-09-18T13:08:03.630Z,99474.91
2022-09-18T13:10:39.660Z,99466.63
2022-09-18T13:13:15.909Z,99480.38
2022-09-18T13:15:51.058Z,99469.19
2022-09-18T13:18:32.448Z,99479.03
2022-09-18T13:21:05.424Z,99466.31
2022-09-18T13:23:39.211Z,99482.34
2022-09-18T13:26:14.348Z,99487.88
2022-09-18T13:28:43.529Z,99484.19
2022-09-18T13:31:25.648Z,99476.75
2022-09-18T13:33:59.508Z,99457.50
2022-09-18T13:36:32.340Z,99476.28
2022-09-18T13:39:04.233Z,99475.34
2022-09-18T13:41:46.210Z,99464.41
2022-09-18T13:44:20.423Z,99464.25
2022-09-18T13:46:50.697Z,99453.31
2022-09-18T13:49:26.183Z,99448.13
2022-09-18T13:51:53.164Z,99454.72
2022-09-18T13:54:27.717Z,99458.09
2022-09-18T13:57:32.482Z,99437.41
2022-09-18T14:00:00.710Z,99440.69
2022-09-18T14:02:40.672Z,99424.78
2022-09-18T14:05:31.817Z,99438.50
2022-09-18T14:08:09.733Z,99441.59
2022-09-18T14:11:14.455Z,99446.41
2022-09-18T14:13:53.619Z,99426.38
2022-09-18T14:16:29.683Z,99440.81
2022-09-18T14:19:26.468Z,99448.19
2022-09-18T14:21:54.192Z,99433.28
2022-09-18T14:24:58.474Z,99442.13
2022-09-18T14:27:42.647Z,99434.31
2022-09-18T14:30:19.829Z,99437.34
2022-09-18T14:33:17.675Z,99431.56
2022-09-18T14:35:54.499Z,99434.25
2022-09-18T14:38:32.126Z,99438.91
2022-09-18T14:41:12.166Z,99423.81
2022-09-18T14:43:47.255Z,99423.25
2022-09-18T14:46:23.219Z,99425.88
2022-09-18T14:48:54.815Z,99405.16
2022-09-18T14:51:25.870Z,99427.53
2022-09-18T14:53:55.832Z,99414.81
2022-09-18T14:56:32.762Z,99406.59
2022-09-18T14:59:05.627Z,99420.06
2022-09-18T15:01:39.338Z,99416.72
2022-09-18T15:04:25.705Z,99407.06
2022-09-18T15:10:52.298Z,99409.19
2022-09-18T15:13:21.920Z,99412.78
2022-09-18T15:15:59.512Z,99402.16
2022-09-18T15:18:29.618Z,99407.56
2022-09-18T15:20:59.733Z,99394.25
2022-09-18T15:23:37.751Z,99402.03
2022-09-18T15:26:12.642Z,99385.19
2022-09-18T15:28:44.215Z,99408.50
2022-09-18T15:31:14.756Z,99391.97
2022-09-18T15:33:57.624Z,99386.31
2022-09-18T15:37:18.640Z,99404.25
2022-09-18T15:40:03.968Z,99396.22
2022-09-18T15:42:35.228Z,99388.56
2022-09-18T15:45:21.502Z,99395.56
2022-09-18T15:47:53.292Z,99368.16
2022-09-18T15:50:41.380Z,99384.34
2022-09-18T15:53:24.348Z,99402.88
2022-09-18T15:56:07.137Z,99382.72
2022-09-18T15:58:51.965Z,99383.66
2022-09-18T16:01:27.518Z,99384.50
2022-09-18T16:04:19.693Z,99374.97
2022-09-18T16:06:59.937Z,99369.44
2022-09-18T16:09:40.930Z,99360.00
2022-09-18T16:12:42.226Z,99367.66
2022-09-18T16:15:23.442Z,99370.28
2022-09-18T16:18:28.705Z,99362.41
2022-09-18T16:21:02.936Z,99381.28
2022-09-18T16:23:36.198Z,99359.88
2022-09-18T16:26:11.465Z,99357.97
2022-09-18T16:28:43.725Z,99349.16
2022-09-18T16:31:13.442Z,99350.38
2022-09-18T16:33:51.636Z,99346.63
2022-09-18T16:36:28.581Z,99329.97
2022-09-18T16:38:59.495Z,99345.78
2022-09-18T16:41:28.282Z,99342.22
2022-09-18T16:43:55.449Z,99332.59
2022-09-18T16:46:29.988Z,99335.41
2022-09-18T16:48:57.617Z,99331.16
2022-09-18T16:51:24.506Z,99337.25
2022-09-18T16:53:51.525Z,99343.47
2022-09-18T16:56:26.650Z,99337.66
2022-09-18T16:58:57.320Z,99347.16
2022-09-18T17:01:24.678Z,99338.91
2022-09-18T17:03:51.984Z,99335.59
2022-09-18T17:06:19.104Z,99331.63
2022-09-18T17:08:46.905Z,99327.34
2022-09-18T17:11:13.845Z,99329.81
2022-09-18T17:13:42.050Z,99333.28
2022-09-18T17:16:09.092Z,99317.69
2022-09-18T17:18:36.084Z,99329.69
2022-09-18T17:21:04.866Z,99332.72
2022-09-18T17:23:32.433Z,99321.44
2022-09-18T17:26:05.330Z,99316.06
2022-09-18T17:28:32.238Z,99299.97
2022-09-18T17:31:06.505Z,99310.69
2022-09-18T17:33:33.631Z,99313.16
2022-09-18T17:36:05.770Z,99322.28
2022-09-18T17:38:36.413Z,99301.09
2022-09-18T17:41:07.426Z,99304.81
2022-09-18T17:43:34.944Z,99307.00
2022-09-18T17:46:06.301Z,99287.06
2022-09-18T17:48:33.890Z,99321.22
2022-09-18T17:51:04.104Z,99297.53
2022-09-18T17:54:03.171Z,99309.38
2022-09-18T17:56:32.199Z,99316.84
2022-09-18T17:59:05.997Z,99310.91
2022-09-18T18:01:38.813Z,99318.06
2022-09-18T18:04:07.336Z,99319.03
2022-09-18T18:06:35.511Z,99327.13
2022-09-18T18:09:02.475Z,99324.53
2022-09-18T18:11:29.692Z,99323.59
2022-09-18T18:13:56.872Z,99322.06
2022-09-18T18:16:27.664Z,99330.91
2022-09-18T18:18:59.474Z,99326.25
2022-09-18T18:21:29.862Z,99325.84
2022-09-18T18:24:02.889Z,99329.06
2022-09-18T18:26:30.585Z,99339.00
2022-09-18T18:28:58.071Z,99325.78
2022-09-18T18:31:27.070Z,99356.13
2022-09-18T18:34:08.488Z,99346.44
2022-09-18T18:36:39.831Z,99337.00
2022-09-18T18:40:30.522Z,99360.00
2022-09-18T18:43:44.046Z,99332.75
2022-09-18T18:46:14.347Z,99341.81
2022-09-18T18:48:43.740Z,99347.06
2022-09-18T18:51:16.742Z,99335.22
2022-09-18T18:53:44.377Z,99344.88
2022-09-18T18:56:15.609Z,99343.59
2022-09-18T18:58:47.646Z,99350.66
2022-09-18T19:01:20.722Z,99352.56
2022-09-18T19:04:05.342Z,99329.59
2022-09-18T19:06:36.614Z,99318.28
2022-09-18T19:09:19.287Z,99335.41
2022-09-18T19:11:54.274Z,99333.19
2022-09-18T19:14:28.343Z,99335.16
2022-09-18T19:16:56.726Z,99318.25
2022-09-18T19:19:35.701Z,99341.28
2022-09-18T19:22:09.748Z,99321.59
2022-09-18T19:37:28.281Z,99375.25
2022-09-18T19:39:57.354Z,99363.78
2022-09-18T19:42:50.412Z,99372.59
2022-09-18T19:45:28.118Z,99376.69
2022-09-18T19:47:56.289Z,99356.84
2022-09-18T19:50:30.950Z,99347.88
2022-09-18T19:53:03.792Z,99368.06
2022-09-18T19:55:50.727Z,99376.22
2022-09-18T19:58:34.753Z,99359.53
2022-09-18T20:01:24.298Z,99390.81
2022-09-18T20:29:50.749Z,99364.06
2022-09-18T20:32:17.865Z,99354.41
2022-09-18T20:34:47.769Z,99355.09
2022-09-18T20:37:15.078Z,99340.72
2022-09-18T20:39:41.921Z,99352.03
2022-09-18T20:42:09.089Z,99356.13
2022-09-18T20:44:36.031Z,99344.72
2022-09-18T20:47:05.554Z,99343.38
2022-09-18T20:49:32.779Z,99339.50
2022-09-18T20:52:00.257Z,99335.16
2022-09-18T20:54:27.005Z,99341.69
2022-09-18T20:56:53.982Z,99334.03
2022-09-18T20:59:21.020Z,99327.97
2022-09-18T21:01:48.626Z,99321.75
2022-09-18T21:04:20.529Z,99322.22
2022-09-18T21:06:51.317Z,99320.16
2022-09-18T21:09:18.240Z,99315.63
2022-09-18T21:11:45.016Z,99318.41
2022-09-18T21:14:14.338Z,99328.00
2022-09-18T21:16:41.440Z,99328.00
2022-09-18T21:19:11.330Z,99327.03
2022-09-18T21:21:40.902Z,99332.28
2022-09-18T21:24:08.319Z,99334.88
2022-09-18T21:26:37.953Z,99337.66
2022-09-18T21:29:11.496Z,99349.72
2022-09-18T21:31:40.846Z,99342.50
2022-09-18T21:34:08.641Z,99347.97
2022-09-18T21:36:35.509Z,99358.44
2022-09-18T21:39:05.053Z,99360.34
2022-09-18T21:41:32.919Z,99365.56
2022-09-18T21:43:59.654Z,99367.09
2022-09-18T21:46:26.828Z,99371.75
2022-09-18T21:48:53.585Z,99377.91
2022-09-18T21:51:20.994Z,99398.00
2022-09-18T21:53:47.958Z,99406.53
2022-09-18T21:56:20.153Z,99396.66
2022-09-18T21:58:47.859Z,99397.38
2022-09-18T22:01:17.791Z,99383.66
2022-09-18T22:03:47.894Z,99393.84
2022-09-18T22:06:14.663Z,99398.50
2022-09-18T22:08:41.512Z,99408.09
2022-09-18T22:11:08.246Z,99418.44
2022-09-18T22:13:36.483Z,99424.03
2022-09-18T22:16:03.260Z,99433.03
2022-09-18T22:18:30.142Z,99441.44
2022-09-18T22:20:56.830Z,99446.13
2022-09-18T22:23:23.749Z,99452.25
2022-09-18T22:25:50.763Z,99452.16
2022-09-18T22:28:18.174Z,99454.19
2022-09-18T22:30:46.333Z,99471.81
2022-09-18T22:33:13.763Z,99473.84
2022-09-18T22:35:40.549Z,99467.94
2022-09-18T22:38:07.514Z,99474.94
2022-09-18T22:40:34.299Z,99478.47
2022-09-18T22:43:01.303Z,99482.03
2022-09-18T22:45:28.094Z,99475.34
2022-09-18T22:47:56.353Z,99493.81
2022-09-18T22:50:23.646Z,99484.63
2022-09-18T22:52:50.399Z,99489.69
2022-09-18T22:55:17.253Z,99484.53
2022-09-18T22:57:44.011Z,99479.75
2022-09-18T23:00:16.500Z,99460.59
2022-09-18T23:02:43.434Z,99482.75
2022-09-18T23:05:11.570Z,99471.84
2022-09-18T23:07:38.991Z,99483.50
2022-09-18T23:10:07.650Z,99470.78
2022-09-18T23:12:34.654Z,99486.44
2022-09-18T23:15:03.746Z,99486.94
2022-09-18T23:17:30.710Z,99481.25
2022-09-18T23:19:57.413Z,99480.56
2022-09-18T23:22:25.754Z,99486.63
2022-09-18T23:24:52.501Z,99484.69
2022-09-18T23:27:19.305Z,99493.22
2022-09-18T23:29:46.049Z,99512.34
2022-09-18T23:32:12.742Z,99514.34
2022-09-18T23:34:40.119Z,99515.31
2022-09-18T23:37:06.833Z,99513.03
2022-09-18T23:39:35.117Z,99517.34
2022-09-18T23:42:03.953Z,99518.25
2022-09-18T23:44:31.304Z,99526.69
2022-09-18T23:46:59.097Z,99535.59
2022-09-18T23:49:25.992Z,99531.75
2022-09-18T23:51:54.414Z,99538.41
2022-09-18T23:54:24.371Z,99545.53
2022-09-18T23:56:55.071Z,99548.22
2022-09-18T23:59:25.232Z,99541.72
